sensor_id;sensor_type;location;lat;lon;timestamp;noise_LAeq;noise_LA_min;noise_LA_max;noise_LA01;noise_LA95
43385;Laerm;28988;48.042;7.584;2023-04-25T00:01:58;90.77;-29.57;99.47;;
43385;Laerm;28988;48.042;7.584;2023-04-25T00:04:24;90.79;-33.05;99.78;;
43385;Laerm;28988;48.042;7.584;2023-04-25T00:06:50;90.86;-30.15;99.67;;
43385;Laerm;28988;48.042;7.584;2023-04-25T00:09:17;90.92;-69.94;99.55;;
43385;Laerm;28988;48.042;7.584;2023-04-25T00:11:42;90.89;-21.22;99.98;;
43385;Laerm;28988;48.042;7.584;2023-04-25T00:14:07;90.81;-38.46;99.41;;
43385;Laerm;28988;48.042;7.584;2023-04-25T00:16:32;90.70;-17.67;99.59;;
43385;Laerm;28988;48.042;7.584;2023-04-25T00:18:59;90.68;-33.25;99.49;;
43385;Laerm;28988;48.042;7.584;2023-04-25T00:21:25;90.65;-18.10;99.69;;
43385;Laerm;28988;48.042;7.584;2023-04-25T00:23:50;90.59;-33.81;99.67;;
43385;Laerm;28988;48.042;7.584;2023-04-25T00:26:15;90.59;-40.25;99.57;;
43385;Laerm;28988;48.042;7.584;2023-04-25T00:28:40;90.51;-20.80;99.57;;
43385;Laerm;28988;48.042;7.584;2023-04-25T00:31:06;90.46;-16.99;99.35;;
43385;Laerm;28988;48.042;7.584;2023-04-25T00:33:31;90.39;-22.11;99.13;;
43385;Laerm;28988;48.042;7.584;2023-04-25T00:35:56;90.38;-29.98;99.45;;
43385;Laerm;28988;48.042;7.584;2023-04-25T00:38:21;90.33;-49.58;99.53;;
43385;Laerm;28988;48.042;7.584;2023-04-25T00:40:47;90.27;-29.68;99.04;;
43385;Laerm;28988;48.042;7.584;2023-04-25T00:43:12;90.24;-24.72;99.14;;
43385;Laerm;28988;48.042;7.584;2023-04-25T00:45:37;90.21;-42.79;99.20;;
43385;Laerm;28988;48.042;7.584;2023-04-25T00:48:03;90.20;-48.57;99.00;;
43385;Laerm;28988;48.042;7.584;2023-04-25T00:50:29;90.19;-59.93;98.91;;
43385;Laerm;28988;48.042;7.584;2023-04-25T00:52:54;90.17;-27.92;99.01;;
43385;Laerm;28988;48.042;7.584;2023-04-25T00:55:20;90.17;-21.54;99.00;;
43385;Laerm;28988;48.042;7.584;2023-04-25T00:57:45;90.16;-26.90;98.90;;
43385;Laerm;28988;48.042;7.584;2023-04-25T01:00:11;90.16;-44.06;98.95;;
43385;Laerm;28988;48.042;7.584;2023-04-25T01:02:38;90.17;-23.63;98.90;;
43385;Laerm;28988;48.042;7.584;2023-04-25T01:05:04;90.16;-22.63;98.83;;
43385;Laerm;28988;48.042;7.584;2023-04-25T01:07:30;90.16;-21.54;99.05;;
43385;Laerm;28988;48.042;7.584;2023-04-25T01:09:55;90.16;-30.88;98.81;;
43385;Laerm;28988;48.042;7.584;2023-04-25T01:12:20;90.16;-29.68;98.89;;
43385;Laerm;28988;48.042;7.584;2023-04-25T01:14:45;90.17;-20.92;99.03;;
43385;Laerm;28988;48.042;7.584;2023-04-25T01:17:12;90.17;-24.90;98.88;;
43385;Laerm;28988;48.042;7.584;2023-04-25T01:19:37;90.17;-24.06;98.99;;
43385;Laerm;28988;48.042;7.584;2023-04-25T01:22:03;90.18;-21.22;98.88;;
43385;Laerm;28988;48.042;7.584;2023-04-25T01:24:28;90.19;-30.72;99.07;;
43385;Laerm;28988;48.042;7.584;2023-04-25T01:26:54;90.20;-25.21;99.01;;
43385;Laerm;28988;48.042;7.584;2023-04-25T01:29:21;90.20;-59.93;99.23;;
43385;Laerm;28988;48.042;7.584;2023-04-25T01:31:46;90.19;-46.79;99.05;;
43385;Laerm;28988;48.042;7.584;2023-04-25T01:34:12;90.19;-23.76;99.02;;
43385;Laerm;28988;48.042;7.584;2023-04-25T01:36:37;90.19;-29.68;99.17;;
43385;Laerm;28988;48.042;7.584;2023-04-25T01:42:05;90.17;-55.00;99.00;;
43385;Laerm;28988;48.042;7.584;2023-04-25T01:44:31;90.16;-42.91;99.02;;
43385;Laerm;28988;48.042;7.584;2023-04-25T01:46:56;90.16;-42.91;98.99;;
43385;Laerm;28988;48.042;7.584;2023-04-25T01:49:21;90.15;-29.68;98.88;;
43385;Laerm;28988;48.042;7.584;2023-04-25T01:51:46;90.14;-27.51;98.85;;
43385;Laerm;28988;48.042;7.584;2023-04-25T01:54:11;90.15;-39.49;99.04;;
43385;Laerm;28988;48.042;7.584;2023-04-25T01:56:37;90.14;-29.68;99.04;;
43385;Laerm;28988;48.042;7.584;2023-04-25T01:59:03;90.14;-48.14;98.66;;
43385;Laerm;28988;48.042;7.584;2023-04-25T02:01:28;90.14;-14.85;98.71;;
43385;Laerm;28988;48.042;7.584;2023-04-25T02:03:53;90.14;-16.02;98.83;;
43385;Laerm;28988;48.042;7.584;2023-04-25T02:06:19;90.15;-17.33;98.83;;
43385;Laerm;28988;48.042;7.584;2023-04-25T02:08:44;90.14;-24.41;98.83;;
43385;Laerm;28988;48.042;7.584;2023-04-25T02:11:09;90.14;-20.23;98.93;;
43385;Laerm;28988;48.042;7.584;2023-04-25T02:13:34;90.14;-42.91;98.69;;
43385;Laerm;28988;48.042;7.584;2023-04-25T02:15:59;90.14;-16.37;98.81;;
43385;Laerm;28988;48.042;7.584;2023-04-25T02:18:25;90.13;-29.68;98.60;;
43385;Laerm;28988;48.042;7.584;2023-04-25T02:20:51;90.15;-21.54;98.74;;
43385;Laerm;28988;48.042;7.584;2023-04-25T02:23:16;90.15;-16.46;98.86;;
43385;Laerm;28988;48.042;7.584;2023-04-25T02:25:43;90.14;-38.35;98.84;;
43385;Laerm;28988;48.042;7.584;2023-04-25T02:28:09;90.13;-14.85;99.15;;
43385;Laerm;28988;48.042;7.584;2023-04-25T02:30:34;90.14;-21.54;98.76;;
43385;Laerm;28988;48.042;7.584;2023-04-25T02:33:00;90.14;-17.33;98.81;;
43385;Laerm;28988;48.042;7.584;2023-04-25T02:35:25;90.14;-22.78;98.81;;
43385;Laerm;28988;48.042;7.584;2023-04-25T02:37:50;90.14;-20.23;98.91;;
43385;Laerm;28988;48.042;7.584;2023-04-25T02:40:16;90.15;-29.68;98.93;;
43385;Laerm;28988;48.042;7.584;2023-04-25T02:42:41;90.15;-20.23;98.90;;
43385;Laerm;28988;48.042;7.584;2023-04-25T02:45:06;90.15;-29.68;98.73;;
43385;Laerm;28988;48.042;7.584;2023-04-25T02:47:32;90.14;-20.19;98.97;;
43385;Laerm;28988;48.042;7.584;2023-04-25T02:49:57;90.15;-21.54;98.86;;
43385;Laerm;28988;48.042;7.584;2023-04-25T02:52:22;90.14;-20.23;98.99;;
43385;Laerm;28988;48.042;7.584;2023-04-25T02:54:47;90.15;-17.33;98.91;;
43385;Laerm;28988;48.042;7.584;2023-04-25T02:57:13;90.14;-16.22;99.02;;
43385;Laerm;28988;48.042;7.584;2023-04-25T02:59:38;90.15;-42.91;98.94;;
43385;Laerm;28988;48.042;7.584;2023-04-25T03:02:03;90.14;-21.80;98.93;;
43385;Laerm;28988;48.042;7.584;2023-04-25T03:04:28;90.15;-15.37;98.81;;
43385;Laerm;28988;48.042;7.584;2023-04-25T03:06:53;90.15;-29.68;98.80;;
43385;Laerm;28988;48.042;7.584;2023-04-25T03:09:19;90.14;-14.85;98.86;;
43385;Laerm;28988;48.042;7.584;2023-04-25T03:11:44;90.15;-19.74;99.09;;
43385;Laerm;28988;48.042;7.584;2023-04-25T03:14:09;90.15;-22.19;98.74;;
43385;Laerm;28988;48.042;7.584;2023-04-25T03:16:35;90.15;-53.45;98.91;;
43385;Laerm;28988;48.042;7.584;2023-04-25T03:19:00;90.15;-19.21;98.96;;
43385;Laerm;28988;48.042;7.584;2023-04-25T03:21:25;90.15;-29.68;98.93;;
43385;Laerm;28988;48.042;7.584;2023-04-25T03:23:51;90.15;-19.74;98.86;;
43385;Laerm;28988;48.042;7.584;2023-04-25T03:26:16;90.14;-20.67;99.11;;
43385;Laerm;28988;48.042;7.584;2023-04-25T03:28:41;90.14;-14.34;98.81;;
43385;Laerm;28988;48.042;7.584;2023-04-25T03:31:07;90.14;-21.98;98.88;;
43385;Laerm;28988;48.042;7.584;2023-04-25T03:33:32;90.14;-29.68;98.75;;
43385;Laerm;28988;48.042;7.584;2023-04-25T03:35:57;90.14;-15.68;98.81;;
43385;Laerm;28988;48.042;7.584;2023-04-25T03:38:22;90.13;-14.85;98.66;;
43385;Laerm;28988;48.042;7.584;2023-04-25T03:40:48;90.14;-16.02;98.81;;
43385;Laerm;28988;48.042;7.584;2023-04-25T03:43:13;90.13;-14.85;98.60;;
43385;Laerm;28988;48.042;7.584;2023-04-25T03:45:38;90.13;-17.33;98.66;;
43385;Laerm;28988;48.042;7.584;2023-04-25T03:48:03;90.14;-14.66;98.71;;
43385;Laerm;28988;48.042;7.584;2023-04-25T03:50:29;90.14;-14.85;98.76;;
43385;Laerm;28988;48.042;7.584;2023-04-25T03:52:54;90.13;-14.34;98.76;;
43385;Laerm;28988;48.042;7.584;2023-04-25T03:55:19;90.14;-17.33;98.66;;
43385;Laerm;28988;48.042;7.584;2023-04-25T03:57:44;90.13;-14.85;98.60;;
43385;Laerm;28988;48.042;7.584;2023-04-25T04:00:10;90.13;-14.66;98.60;;
43385;Laerm;28988;48.042;7.584;2023-04-25T04:02:35;90.13;-17.33;98.60;;
43385;Laerm;28988;48.042;7.584;2023-04-25T04:05:02;90.13;-16.02;98.71;;
43385;Laerm;28988;48.042;7.584;2023-04-25T04:07:27;90.13;-16.02;98.76;;
43385;Laerm;28988;48.042;7.584;2023-04-25T04:09:52;90.13;-14.85;98.71;;
43385;Laerm;28988;48.042;7.584;2023-04-25T04:12:18;90.14;-21.22;98.70;;
43385;Laerm;28988;48.042;7.584;2023-04-25T04:14:43;90.13;-14.85;98.66;;
43385;Laerm;28988;48.042;7.584;2023-04-25T04:17:08;90.14;-17.33;98.71;;
43385;Laerm;28988;48.042;7.584;2023-04-25T04:19:33;90.14;-41.46;98.66;;
43385;Laerm;28988;48.042;7.584;2023-04-25T04:21:58;90.13;-30.40;98.71;;
43385;Laerm;28988;48.042;7.584;2023-04-25T04:24:24;90.14;-18.61;98.70;;
43385;Laerm;28988;48.042;7.584;2023-04-25T04:26:49;90.14;-23.53;98.80;;
43385;Laerm;28988;48.042;7.584;2023-04-25T04:29:15;90.14;-14.34;98.81;;
43385;Laerm;28988;48.042;7.584;2023-04-25T04:31:45;90.13;-14.66;98.71;;
43385;Laerm;28988;48.042;7.584;2023-04-25T04:34:11;90.14;-22.31;98.73;;
43385;Laerm;28988;48.042;7.584;2023-04-25T04:36:36;90.14;-16.02;98.80;;
43385;Laerm;28988;48.042;7.584;2023-04-25T04:39:01;90.13;-21.54;98.81;;
43385;Laerm;28988;48.042;7.584;2023-04-25T04:41:28;90.14;-20.15;98.87;;
43385;Laerm;28988;48.042;7.584;2023-04-25T04:43:53;90.14;-20.15;98.75;;
43385;Laerm;28988;48.042;7.584;2023-04-25T04:46:20;90.14;-37.56;98.81;;
43385;Laerm;28988;48.042;7.584;2023-04-25T04:48:46;90.14;-21.21;98.91;;
43385;Laerm;28988;48.042;7.584;2023-04-25T04:51:12;90.14;-33.74;98.90;;
43385;Laerm;28988;48.042;7.584;2023-04-25T04:53:37;90.13;-29.68;98.76;;
43385;Laerm;28988;48.042;7.584;2023-04-25T04:56:02;90.14;-24.92;98.81;;
43385;Laerm;28988;48.042;7.584;2023-04-25T04:58:27;96.90;-31.76;105.65;;
43385;Laerm;28988;48.042;7.584;2023-04-25T05:00:54;90.93;-42.79;100.90;;
43385;Laerm;28988;48.042;7.584;2023-04-25T05:03:20;90.15;-29.77;98.94;;
43385;Laerm;28988;48.042;7.584;2023-04-25T05:05:45;90.13;-44.06;98.85;;
43385;Laerm;28988;48.042;7.584;2023-04-25T05:08:10;90.49;-59.93;103.75;;
43385;Laerm;28988;48.042;7.584;2023-04-25T05:10:36;98.92;-29.25;105.04;;
43385;Laerm;28988;48.042;7.584;2023-04-25T05:13:01;99.85;-31.67;105.06;;
43385;Laerm;28988;48.042;7.584;2023-04-25T05:15:26;99.71;-18.29;105.54;;
43385;Laerm;28988;48.042;7.584;2023-04-25T05:17:51;99.27;-38.38;105.53;;
43385;Laerm;28988;48.042;7.584;2023-04-25T05:20:16;94.99;-22.85;104.07;;
43385;Laerm;28988;48.042;7.584;2023-04-25T05:22:43;93.59;-31.56;101.51;;
43385;Laerm;28988;48.042;7.584;2023-04-25T05:25:09;99.17;-11.21;105.37;;
43385;Laerm;28988;48.042;7.584;2023-04-25T05:27:34;99.69;-24.64;105.48;;
43385;Laerm;28988;48.042;7.584;2023-04-25T05:29:59;91.26;-37.67;102.55;;
43385;Laerm;28988;48.042;7.584;2023-04-25T05:32:25;84.79;-28.73;96.30;;
43385;Laerm;28988;48.042;7.584;2023-04-25T05:34:50;84.38;-34.16;95.57;;
43385;Laerm;28988;48.042;7.584;2023-04-25T05:37:15;84.34;-23.73;95.61;;
43385;Laerm;28988;48.042;7.584;2023-04-25T05:39:40;84.31;-26.80;95.18;;
43385;Laerm;28988;48.042;7.584;2023-04-25T05:42:05;84.30;-57.68;95.59;;
43385;Laerm;28988;48.042;7.584;2023-04-25T05:44:31;84.27;-57.68;95.11;;
43385;Laerm;28988;48.042;7.584;2023-04-25T05:46:56;84.22;-57.68;94.18;;
43385;Laerm;28988;48.042;7.584;2023-04-25T05:49:21;84.19;-33.10;93.66;;
43385;Laerm;28988;48.042;7.584;2023-04-25T05:51:46;84.18;-32.31;93.49;;
43385;Laerm;28988;48.042;7.584;2023-04-25T05:54:12;84.16;-20.71;93.13;;
43385;Laerm;28988;48.042;7.584;2023-04-25T05:56:37;84.15;-21.94;93.31;;
43385;Laerm;28988;48.042;7.584;2023-04-25T05:59:02;84.14;-20.71;93.13;;
43385;Laerm;28988;48.042;7.584;2023-04-25T06:01:28;84.14;-20.71;93.13;;
43385;Laerm;28988;48.042;7.584;2023-04-25T06:03:53;84.13;-33.90;92.94;;
43385;Laerm;28988;48.042;7.584;2023-04-25T06:06:18;84.13;-33.96;93.31;;
43385;Laerm;28988;48.042;7.584;2023-04-25T06:08:43;84.12;-25.37;92.94;;
43385;Laerm;28988;48.042;7.584;2023-04-25T06:11:09;84.12;-31.77;93.49;;
43385;Laerm;28988;48.042;7.584;2023-04-25T06:13:34;84.10;-31.77;93.65;;
43385;Laerm;28988;48.042;7.584;2023-04-25T06:16:00;84.08;-46.76;92.89;;
43385;Laerm;28988;48.042;7.584;2023-04-25T06:18:25;84.11;-33.10;93.18;;
43385;Laerm;28988;48.042;7.584;2023-04-25T06:20:50;84.14;-22.68;94.15;;
43385;Laerm;28988;48.042;7.584;2023-04-25T06:23:15;84.10;-33.34;93.05;;
43385;Laerm;28988;48.042;7.584;2023-04-25T06:25:40;84.00;-43.71;92.66;;
43385;Laerm;28988;48.042;7.584;2023-04-25T06:28:06;83.77;-55.81;94.73;;
43385;Laerm;28988;48.042;7.584;2023-04-25T06:30:31;84.01;-25.85;95.12;;
43385;Laerm;28988;48.042;7.584;2023-04-25T06:32:56;83.63;-41.95;93.70;;
43385;Laerm;28988;48.042;7.584;2023-04-25T06:35:21;83.57;-71.87;93.49;;
43385;Laerm;28988;48.042;7.584;2023-04-25T06:37:46;83.63;-47.69;93.27;;
43385;Laerm;28988;48.042;7.584;2023-04-25T06:40:11;83.71;-45.84;93.29;;
43385;Laerm;28988;48.042;7.584;2023-04-25T06:42:37;83.64;-38.65;93.63;;
43385;Laerm;28988;48.042;7.584;2023-04-25T06:45:02;83.59;-38.65;93.83;;
43385;Laerm;28988;48.042;7.584;2023-04-25T06:47:27;83.51;-55.81;93.64;;
43385;Laerm;28988;48.042;7.584;2023-04-25T06:49:53;83.55;-55.81;93.64;;
43385;Laerm;28988;48.042;7.584;2023-04-25T06:52:18;83.59;-52.64;93.55;;
43385;Laerm;28988;48.042;7.584;2023-04-25T06:54:43;83.64;-46.30;93.20;;
43385;Laerm;28988;48.042;7.584;2023-04-25T06:57:08;83.86;-30.47;93.82;;
43385;Laerm;28988;48.042;7.584;2023-04-25T06:59:34;84.06;-46.36;93.39;;
43385;Laerm;28988;48.042;7.584;2023-04-25T07:01:59;84.09;-22.68;93.49;;
43385;Laerm;28988;48.042;7.584;2023-04-25T07:04:24;84.12;-22.68;93.28;;
43385;Laerm;28988;48.042;7.584;2023-04-25T07:06:50;84.13;-27.16;92.94;;
43385;Laerm;28988;48.042;7.584;2023-04-25T07:09:15;84.13;-31.77;93.13;;
43385;Laerm;28988;48.042;7.584;2023-04-25T07:11:41;84.13;-31.77;93.18;;
43385;Laerm;28988;48.042;7.584;2023-04-25T07:14:06;84.14;-22.68;93.67;;
43385;Laerm;28988;48.042;7.584;2023-04-25T07:16:31;84.14;-27.16;93.33;;
43385;Laerm;28988;48.042;7.584;2023-04-25T07:18:56;84.14;-38.35;93.31;;
43385;Laerm;28988;48.042;7.584;2023-04-25T07:21:22;84.13;-27.16;93.13;;
43385;Laerm;28988;48.042;7.584;2023-04-25T07:23:47;84.13;-47.13;92.99;;
43385;Laerm;28988;48.042;7.584;2023-04-25T07:26:12;84.12;-31.77;92.99;;
43385;Laerm;28988;48.042;7.584;2023-04-25T07:28:38;84.13;-22.68;93.18;;
43385;Laerm;28988;48.042;7.584;2023-04-25T07:31:03;84.13;-22.57;93.22;;
43385;Laerm;28988;48.042;7.584;2023-04-25T07:33:28;84.13;-22.68;93.04;;
43385;Laerm;28988;48.042;7.584;2023-04-25T07:35:54;84.13;-28.01;92.94;;
43385;Laerm;28988;48.042;7.584;2023-04-25T07:38:19;84.13;-38.65;93.13;;
43385;Laerm;28988;48.042;7.584;2023-04-25T07:40:45;84.13;-51.62;93.18;;
43385;Laerm;28988;48.042;7.584;2023-04-25T07:43:10;84.12;-45.84;93.04;;
43385;Laerm;28988;48.042;7.584;2023-04-25T07:45:37;84.13;-25.37;93.02;;
43385;Laerm;28988;48.042;7.584;2023-04-25T07:48:02;84.12;-23.85;93.53;;
43385;Laerm;28988;48.042;7.584;2023-04-25T07:50:28;84.06;-43.71;93.37;;
43385;Laerm;28988;48.042;7.584;2023-04-25T07:52:53;84.04;-38.74;93.10;;
43385;Laerm;28988;48.042;7.584;2023-04-25T07:55:18;84.04;-31.06;93.56;;
43385;Laerm;28988;48.042;7.584;2023-04-25T07:57:43;84.06;-43.71;93.58;;
43385;Laerm;28988;48.042;7.584;2023-04-25T08:00:08;84.08;-43.71;93.52;;
43385;Laerm;28988;48.042;7.584;2023-04-25T08:02:34;84.08;-43.71;93.38;;
43385;Laerm;28988;48.042;7.584;2023-04-25T08:05:00;84.09;-43.71;93.48;;
43385;Laerm;28988;48.042;7.584;2023-04-25T08:07:25;84.09;-27.40;93.21;;
43385;Laerm;28988;48.042;7.584;2023-04-25T08:09:50;84.12;-35.22;93.16;;
43385;Laerm;28988;48.042;7.584;2023-04-25T08:12:15;84.14;-24.54;93.45;;
43385;Laerm;28988;48.042;7.584;2023-04-25T08:14:40;84.12;-22.68;93.57;;
43385;Laerm;28988;48.042;7.584;2023-04-25T08:17:06;84.14;-32.90;93.48;;
43385;Laerm;28988;48.042;7.584;2023-04-25T08:19:31;84.13;-31.14;93.39;;
43385;Laerm;28988;48.042;7.584;2023-04-25T08:21:56;84.13;-20.71;93.26;;
43385;Laerm;28988;48.042;7.584;2023-04-25T08:24:22;84.14;-22.68;93.39;;
43385;Laerm;28988;48.042;7.584;2023-04-25T08:26:47;84.13;-20.71;93.48;;
43385;Laerm;28988;48.042;7.584;2023-04-25T08:29:12;84.14;-25.19;93.39;;
43385;Laerm;28988;48.042;7.584;2023-04-25T08:31:38;84.14;-29.01;93.64;;
43385;Laerm;28988;48.042;7.584;2023-04-25T08:34:03;84.14;-22.68;93.30;;
43385;Laerm;28988;48.042;7.584;2023-04-25T08:36:28;84.13;-20.71;93.32;;
43385;Laerm;28988;48.042;7.584;2023-04-25T08:38:53;84.14;-20.71;93.45;;
43385;Laerm;28988;48.042;7.584;2023-04-25T08:41:18;84.13;-20.71;93.22;;
43385;Laerm;28988;48.042;7.584;2023-04-25T08:43:45;84.13;-20.71;93.13;;
43385;Laerm;28988;48.042;7.584;2023-04-25T08:46:13;84.14;-33.10;93.31;;
43385;Laerm;28988;48.042;7.584;2023-04-25T08:48:42;84.14;-20.71;93.13;;
43385;Laerm;28988;48.042;7.584;2023-04-25T08:51:07;84.13;-36.29;93.13;;
43385;Laerm;28988;48.042;7.584;2023-04-25T08:53:33;84.14;-20.71;93.50;;
43385;Laerm;28988;48.042;7.584;2023-04-25T08:55:59;84.13;-21.66;93.11;;
43385;Laerm;28988;48.042;7.584;2023-04-25T08:58:26;84.18;-28.29;94.08;;
43385;Laerm;28988;48.042;7.584;2023-04-25T09:00:52;84.30;-23.73;95.02;;
43385;Laerm;28988;48.042;7.584;2023-04-25T09:03:18;84.32;-24.51;95.58;;
43385;Laerm;28988;48.042;7.584;2023-04-25T09:05:43;84.36;-28.29;95.20;;
43385;Laerm;28988;48.042;7.584;2023-04-25T09:08:09;84.40;-41.54;95.52;;
43385;Laerm;28988;48.042;7.584;2023-04-25T09:10:34;84.43;-32.39;95.89;;
43385;Laerm;28988;48.042;7.584;2023-04-25T09:13:09;84.46;-57.68;95.49;;
43385;Laerm;28988;48.042;7.584;2023-04-25T09:16:09;84.40;-33.10;95.59;;
43385;Laerm;28988;48.042;7.584;2023-04-25T09:18:28;84.36;-28.37;95.93;;
43385;Laerm;28988;48.042;7.584;2023-04-25T09:20:54;84.41;-23.58;95.17;;
43385;Laerm;28988;48.042;7.584;2023-04-25T09:23:20;84.39;-28.29;95.66;;
43385;Laerm;28988;48.042;7.584;2023-04-25T09:25:49;84.36;-57.68;95.23;;
43385;Laerm;28988;48.042;7.584;2023-04-25T09:28:14;84.36;-57.68;95.69;;
43385;Laerm;28988;48.042;7.584;2023-04-25T09:30:40;84.33;-34.16;95.36;;
43385;Laerm;28988;48.042;7.584;2023-04-25T09:33:09;84.31;-57.68;95.82;;
43385;Laerm;28988;48.042;7.584;2023-04-25T09:35:35;84.32;-23.73;95.96;;
43385;Laerm;28988;48.042;7.584;2023-04-25T09:38:01;84.36;-57.68;95.51;;
43385;Laerm;28988;48.042;7.584;2023-04-25T09:40:26;84.47;-57.68;95.76;;
43385;Laerm;28988;48.042;7.584;2023-04-25T09:42:51;85.29;-53.89;96.08;;
43385;Laerm;28988;48.042;7.584;2023-04-25T09:45:16;86.56;-45.36;97.88;;
43385;Laerm;28988;48.042;7.584;2023-04-25T09:47:41;86.75;-39.80;98.07;;
43385;Laerm;28988;48.042;7.584;2023-04-25T09:50:15;86.29;-23.80;98.15;;
43385;Laerm;28988;48.042;7.584;2023-04-25T09:52:41;85.78;-34.47;96.77;;
43385;Laerm;28988;48.042;7.584;2023-04-25T09:55:06;85.01;-38.65;95.92;;
43385;Laerm;28988;48.042;7.584;2023-04-25T09:57:31;84.64;-52.22;95.97;;
43385;Laerm;28988;48.042;7.584;2023-04-25T09:59:57;84.52;-38.42;96.13;;
43385;Laerm;28988;48.042;7.584;2023-04-25T10:02:25;84.47;-57.68;95.93;;
43385;Laerm;28988;48.042;7.584;2023-04-25T10:04:51;84.41;-23.73;95.65;;
43385;Laerm;28988;48.042;7.584;2023-04-25T10:07:19;84.39;-32.03;95.79;;
43385;Laerm;28988;48.042;7.584;2023-04-25T10:09:47;84.38;-23.73;96.19;;
43385;Laerm;28988;48.042;7.584;2023-04-25T10:12:12;84.40;-33.36;95.52;;
43385;Laerm;28988;48.042;7.584;2023-04-25T10:14:38;84.34;-57.68;95.30;;
43385;Laerm;28988;48.042;7.584;2023-04-25T10:17:03;84.35;-23.73;95.60;;
43385;Laerm;28988;48.042;7.584;2023-04-25T10:19:28;84.35;-34.16;94.94;;
43385;Laerm;28988;48.042;7.584;2023-04-25T10:24:25;84.33;-31.18;95.42;;
43385;Laerm;28988;48.042;7.584;2023-04-25T10:26:51;84.37;-28.29;95.66;;
43385;Laerm;28988;48.042;7.584;2023-04-25T10:29:24;84.37;-43.28;95.45;;
43385;Laerm;28988;48.042;7.584;2023-04-25T10:31:49;84.40;-36.09;95.80;;
43385;Laerm;28988;48.042;7.584;2023-04-25T10:34:15;84.43;-26.06;96.04;;
43385;Laerm;28988;48.042;7.584;2023-04-25T10:36:40;84.41;-40.75;95.88;;
43385;Laerm;28988;48.042;7.584;2023-04-25T10:39:06;84.35;-33.10;95.49;;
43385;Laerm;28988;48.042;7.584;2023-04-25T10:41:47;84.29;-23.73;94.68;;
43385;Laerm;28988;48.042;7.584;2023-04-25T10:44:13;84.25;-34.16;95.26;;
43385;Laerm;28988;48.042;7.584;2023-04-25T10:46:38;84.26;-44.31;94.67;;
43385;Laerm;28988;48.042;7.584;2023-04-25T10:49:03;84.26;-57.68;95.21;;
43385;Laerm;28988;48.042;7.584;2023-04-25T10:51:29;84.27;-23.73;95.28;;
43385;Laerm;28988;48.042;7.584;2023-04-25T10:59:02;84.29;-57.68;95.38;;
43385;Laerm;28988;48.042;7.584;2023-04-25T11:01:27;84.29;-23.73;95.34;;
43385;Laerm;28988;48.042;7.584;2023-04-25T11:04:00;84.30;-23.73;95.99;;
43385;Laerm;28988;48.042;7.584;2023-04-25T11:06:29;84.33;-23.73;95.14;;
43385;Laerm;28988;48.042;7.584;2023-04-25T11:08:57;84.38;-39.78;95.48;;
43385;Laerm;28988;48.042;7.584;2023-04-25T11:11:25;84.69;-25.50;95.89;;
43385;Laerm;28988;48.042;7.584;2023-04-25T11:13:51;86.45;-49.49;98.15;;
43385;Laerm;28988;48.042;7.584;2023-04-25T11:16:16;89.04;-43.50;100.12;;
43385;Laerm;28988;48.042;7.584;2023-04-25T11:18:42;93.08;-53.41;103.09;;
43385;Laerm;28988;48.042;7.584;2023-04-25T11:21:08;97.23;-42.55;104.93;;
43385;Laerm;28988;48.042;7.584;2023-04-25T11:23:33;94.31;-46.54;104.70;;
43385;Laerm;28988;48.042;7.584;2023-04-25T11:25:58;88.63;-28.13;99.99;;
43385;Laerm;28988;48.042;7.584;2023-04-25T11:28:26;85.31;-47.13;97.01;;
43385;Laerm;28988;48.042;7.584;2023-04-25T11:30:51;84.49;-46.93;95.98;;
43385;Laerm;28988;48.042;7.584;2023-04-25T11:33:16;84.38;-26.80;95.36;;
43385;Laerm;28988;48.042;7.584;2023-04-25T11:35:42;84.33;-34.16;95.45;;
43385;Laerm;28988;48.042;7.584;2023-04-25T11:38:07;84.29;-23.73;95.18;;
43385;Laerm;28988;48.042;7.584;2023-04-25T11:40:32;84.25;-23.73;94.43;;
43385;Laerm;28988;48.042;7.584;2023-04-25T11:42:59;84.21;-57.68;94.22;;
43385;Laerm;28988;48.042;7.584;2023-04-25T11:45:25;84.18;-57.68;93.84;;
43385;Laerm;28988;48.042;7.584;2023-04-25T11:47:50;84.18;-57.68;94.43;;
43385;Laerm;28988;48.042;7.584;2023-04-25T11:50:15;84.17;-44.31;93.62;;
43385;Laerm;28988;48.042;7.584;2023-04-25T11:52:42;84.15;-57.68;93.31;;
43385;Laerm;28988;48.042;7.584;2023-04-25T11:55:17;84.16;-33.10;93.60;;
43385;Laerm;28988;48.042;7.584;2023-04-25T11:57:43;84.15;-28.29;93.31;;
43385;Laerm;28988;48.042;7.584;2023-04-25T12:00:15;84.15;-57.68;93.22;;
43385;Laerm;28988;48.042;7.584;2023-04-25T12:02:45;84.14;-28.29;92.89;;
43385;Laerm;28988;48.042;7.584;2023-04-25T12:05:11;84.14;-57.68;93.73;;
43385;Laerm;28988;48.042;7.584;2023-04-25T12:07:37;84.14;-25.74;93.02;;
43385;Laerm;28988;48.042;7.584;2023-04-25T12:10:13;84.14;-28.29;93.31;;
43385;Laerm;28988;48.042;7.584;2023-04-25T12:12:41;84.15;-57.68;93.36;;
43385;Laerm;28988;48.042;7.584;2023-04-25T12:17:35;84.16;-23.73;93.64;;
43385;Laerm;28988;48.042;7.584;2023-04-25T12:20:00;84.16;-33.10;93.36;;
43385;Laerm;28988;48.042;7.584;2023-04-25T12:22:30;84.17;-28.29;93.51;;
43385;Laerm;28988;48.042;7.584;2023-04-25T12:24:56;84.15;-33.10;93.70;;
43385;Laerm;28988;48.042;7.584;2023-04-25T12:27:23;84.16;-57.68;93.69;;
43385;Laerm;28988;48.042;7.584;2023-04-25T12:29:52;84.16;-33.10;93.22;;
43385;Laerm;28988;48.042;7.584;2023-04-25T12:32:18;84.15;-33.10;93.54;;
43385;Laerm;28988;48.042;7.584;2023-04-25T12:34:43;84.16;-57.68;94.42;;
43385;Laerm;28988;48.042;7.584;2023-04-25T12:37:08;84.16;-57.68;93.68;;
43385;Laerm;28988;48.042;7.584;2023-04-25T12:39:34;84.15;-33.10;93.37;;
43385;Laerm;28988;48.042;7.584;2023-04-25T12:41:59;84.15;-33.10;93.64;;
43385;Laerm;28988;48.042;7.584;2023-04-25T12:44:24;84.15;-57.68;93.18;;
43385;Laerm;28988;48.042;7.584;2023-04-25T12:46:50;84.15;-57.68;93.45;;
43385;Laerm;28988;48.042;7.584;2023-04-25T12:49:15;84.16;-57.68;94.03;;
43385;Laerm;28988;48.042;7.584;2023-04-25T12:51:40;84.14;-57.68;92.99;;
43385;Laerm;28988;48.042;7.584;2023-04-25T12:54:06;84.15;-57.68;93.31;;
43385;Laerm;28988;48.042;7.584;2023-04-25T12:56:33;84.15;-33.10;93.64;;
43385;Laerm;28988;48.042;7.584;2023-04-25T12:58:58;84.15;-57.68;93.54;;
43385;Laerm;28988;48.042;7.584;2023-04-25T13:01:24;84.14;-57.68;93.27;;
43385;Laerm;28988;48.042;7.584;2023-04-25T13:03:49;84.14;-57.68;92.99;;
43385;Laerm;28988;48.042;7.584;2023-04-25T13:06:15;84.16;-57.68;93.17;;
43385;Laerm;28988;48.042;7.584;2023-04-25T13:08:40;84.14;-28.29;93.70;;
43385;Laerm;28988;48.042;7.584;2023-04-25T13:11:06;84.14;-57.68;93.35;;
43385;Laerm;28988;48.042;7.584;2023-04-25T13:13:32;84.15;-57.68;93.35;;
43385;Laerm;28988;48.042;7.584;2023-04-25T13:15:57;84.16;-57.68;93.56;;
43385;Laerm;28988;48.042;7.584;2023-04-25T13:18:22;84.17;-57.68;93.35;;
43385;Laerm;28988;48.042;7.584;2023-04-25T13:20:51;84.18;-57.68;93.96;;
43385;Laerm;28988;48.042;7.584;2023-04-25T13:23:16;84.17;-57.68;93.96;;
43385;Laerm;28988;48.042;7.584;2023-04-25T13:25:42;84.17;-57.68;93.35;;
43385;Laerm;28988;48.042;7.584;2023-04-25T13:28:07;84.17;-24.39;93.31;;
43385;Laerm;28988;48.042;7.584;2023-04-25T13:30:32;84.17;-57.68;93.66;;
43385;Laerm;28988;48.042;7.584;2023-04-25T13:32:57;84.16;-57.68;93.16;;
43385;Laerm;28988;48.042;7.584;2023-04-25T13:35:27;84.17;-57.68;93.36;;
43385;Laerm;28988;48.042;7.584;2023-04-25T13:37:53;84.17;-57.68;93.51;;